sensor_id;sensor_type;location;lat;lon;timestamp;pressure;altitude;pressure_sealevel;temperature;humidity
69772;BME280;57046;45.988;18.664;2022-08-19T00:00:13;99979.78;;;22.29;68.90
69772;BME280;57046;45.988;18.664;2022-08-19T00:02:38;99989.19;;;22.32;70.03
69772;BME280;57046;45.988;18.664;2022-08-19T00:05:04;99976.66;;;22.27;69.76
69772;BME280;57046;45.988;18.664;2022-08-19T00:07:29;99970.41;;;22.23;69.83
69772;BME280;57046;45.988;18.664;2022-08-19T00:09:55;99966.94;;;22.16;70.63
69772;BME280;57046;45.988;18.664;2022-08-19T00:12:20;99979.03;;;22.25;70.68
69772;BME280;57046;45.988;18.664;2022-08-19T00:14:45;99970.56;;;22.09;70.81
69772;BME280;57046;45.988;18.664;2022-08-19T00:17:11;99983.84;;;22.18;70.19
69772;BME280;57046;45.988;18.664;2022-08-19T00:19:36;99990.13;;;22.18;69.75
69772;BME280;57046;45.988;18.664;2022-08-19T00:22:02;99964.97;;;22.16;70.65
69772;BME280;57046;45.988;18.664;2022-08-19T00:24:28;99970.84;;;22.18;70.20
69772;BME280;57046;45.988;18.664;2022-08-19T00:26:54;99968.09;;;22.18;70.19
69772;BME280;57046;45.988;18.664;2022-08-19T00:29:20;99968.84;;;22.22;70.54
69772;BME280;57046;45.988;18.664;2022-08-19T00:31:46;99974.00;;;22.20;71.47
69772;BME280;57046;45.988;18.664;2022-08-19T00:34:13;99967.78;;;22.13;71.75
69772;BME280;57046;45.988;18.664;2022-08-19T00:36:40;99943.16;;;21.99;71.61
69772;BME280;57046;45.988;18.664;2022-08-19T00:39:05;99961.19;;;22.03;71.80
69772;BME280;57046;45.988;18.664;2022-08-19T00:41:32;99961.28;;;21.96;72.03
69772;BME280;57046;45.988;18.664;2022-08-19T00:44:25;99950.34;;;21.86;72.92
69772;BME280;57046;45.988;18.664;2022-08-19T00:46:52;99942.13;;;21.82;72.75
69772;BME280;57046;45.988;18.664;2022-08-19T00:49:31;99945.31;;;21.77;72.93
69772;BME280;57046;45.988;18.664;2022-08-19T00:52:08;99941.00;;;21.76;73.26
69772;BME280;57046;45.988;18.664;2022-08-19T00:54:36;99936.69;;;21.75;73.48
69772;BME280;57046;45.988;18.664;2022-08-19T00:57:05;99939.03;;;21.76;73.07
69772;BME280;57046;45.988;18.664;2022-08-19T00:59:31;99938.69;;;21.71;74.38
69772;BME280;57046;45.988;18.664;2022-08-19T01:01:59;99942.66;;;21.66;73.88
69772;BME280;57046;45.988;18.664;2022-08-19T01:04:25;99943.50;;;21.63;73.52
69772;BME280;57046;45.988;18.664;2022-08-19T01:06:50;99954.00;;;21.72;73.48
69772;BME280;57046;45.988;18.664;2022-08-19T01:09:15;99938.28;;;21.72;72.97
69772;BME280;57046;45.988;18.664;2022-08-19T01:11:42;99959.38;;;21.86;72.14
69772;BME280;57046;45.988;18.664;2022-08-19T01:14:10;99949.50;;;21.92;72.22
69772;BME280;57046;45.988;18.664;2022-08-19T01:16:37;99948.72;;;21.92;72.82
69772;BME280;57046;45.988;18.664;2022-08-19T01:19:08;99949.94;;;21.87;72.72
69772;BME280;57046;45.988;18.664;2022-08-19T01:21:47;99953.06;;;21.89;71.96
69772;BME280;57046;45.988;18.664;2022-08-19T01:24:14;99948.38;;;21.90;72.73
69772;BME280;57046;45.988;18.664;2022-08-19T01:26:41;99951.47;;;21.88;73.15
69772;BME280;57046;45.988;18.664;2022-08-19T01:29:08;99949.50;;;21.89;71.81
69772;BME280;57046;45.988;18.664;2022-08-19T01:31:33;99947.78;;;22.05;70.71
69772;BME280;57046;45.988;18.664;2022-08-19T01:34:00;99938.78;;;22.01;71.62
69772;BME280;57046;45.988;18.664;2022-08-19T01:39:03;99935.81;;;21.81;73.12
69772;BME280;57046;45.988;18.664;2022-08-19T01:41:29;99923.78;;;21.68;73.35
69772;BME280;57046;45.988;18.664;2022-08-19T01:43:54;99929.75;;;21.60;74.01
69772;BME280;57046;45.988;18.664;2022-08-19T01:46:20;99929.00;;;21.56;74.62
69772;BME280;57046;45.988;18.664;2022-08-19T01:48:46;99927.06;;;21.53;74.97
69772;BME280;57046;45.988;18.664;2022-08-19T01:51:12;99922.41;;;21.50;74.95
69772;BME280;57046;45.988;18.664;2022-08-19T01:53:38;99930.25;;;21.48;74.08
69772;BME280;57046;45.988;18.664;2022-08-19T01:56:05;99931.81;;;21.49;75.29
69772;BME280;57046;45.988;18.664;2022-08-19T01:58:36;99931.00;;;21.52;73.79
69772;BME280;57046;45.988;18.664;2022-08-19T02:01:04;99931.44;;;21.47;74.06
69772;BME280;57046;45.988;18.664;2022-08-19T02:03:30;99923.97;;;21.47;74.01
69772;BME280;57046;45.988;18.664;2022-08-19T02:05:58;99939.25;;;21.52;73.97
69772;BME280;57046;45.988;18.664;2022-08-19T02:08:24;99937.34;;;21.45;74.57
69772;BME280;57046;45.988;18.664;2022-08-19T02:10:49;99933.50;;;21.36;74.96
69772;BME280;57046;45.988;18.664;2022-08-19T02:13:16;99926.47;;;21.31;74.07
69772;BME280;57046;45.988;18.664;2022-08-19T02:15:41;99939.81;;;21.33;73.77
69772;BME280;57046;45.988;18.664;2022-08-19T02:18:07;99942.19;;;21.30;74.16
69772;BME280;57046;45.988;18.664;2022-08-19T02:20:33;99938.00;;;21.12;74.94
69772;BME280;57046;45.988;18.664;2022-08-19T02:22:58;99939.97;;;21.08;nan
69772;BME280;57046;45.988;18.664;2022-08-19T02:25:23;99932.13;;;21.03;75.61
69772;BME280;57046;45.988;18.664;2022-08-19T02:27:49;99943.91;;;21.03;74.65
69772;BME280;57046;45.988;18.664;2022-08-19T02:30:16;99948.59;;;21.10;75.85
69772;BME280;57046;45.988;18.664;2022-08-19T02:32:41;99948.22;;;21.04;76.81
69772;BME280;57046;45.988;18.664;2022-08-19T02:35:08;99938.47;;;20.96;76.37
69772;BME280;57046;45.988;18.664;2022-08-19T02:37:34;99939.28;;;20.90;75.39
69772;BME280;57046;45.988;18.664;2022-08-19T02:40:00;99946.38;;;20.87;77.09
69772;BME280;57046;45.988;18.664;2022-08-19T02:42:25;99946.84;;;20.78;76.43
69772;BME280;57046;45.988;18.664;2022-08-19T02:44:50;99941.75;;;20.70;74.44
69772;BME280;57046;45.988;18.664;2022-08-19T02:47:16;99941.00;;;20.62;73.97
69772;BME280;57046;45.988;18.664;2022-08-19T02:49:41;99953.91;;;20.69;75.37
69772;BME280;57046;45.988;18.664;2022-08-19T02:52:07;99948.88;;;20.64;76.33
69772;BME280;57046;45.988;18.664;2022-08-19T02:54:33;99939.84;;;20.60;76.09
69772;BME280;57046;45.988;18.664;2022-08-19T02:56:58;99932.81;;;20.55;76.97
69772;BME280;57046;45.988;18.664;2022-08-19T02:59:24;99934.75;;;20.58;75.98
69772;BME280;57046;45.988;18.664;2022-08-19T03:01:49;99941.81;;;20.63;76.74
69772;BME280;57046;45.988;18.664;2022-08-19T03:04:15;99941.41;;;20.68;76.84
69772;BME280;57046;45.988;18.664;2022-08-19T03:06:44;99947.22;;;20.77;78.04
69772;BME280;57046;45.988;18.664;2022-08-19T03:09:11;99928.81;;;20.70;77.91
69772;BME280;57046;45.988;18.664;2022-08-19T03:11:37;99935.88;;;20.75;78.14
69772;BME280;57046;45.988;18.664;2022-08-19T03:14:04;99931.94;;;20.72;77.93
69772;BME280;57046;45.988;18.664;2022-08-19T03:16:32;99930.38;;;20.75;78.31
69772;BME280;57046;45.988;18.664;2022-08-19T03:18:58;99911.56;;;20.70;78.37
69772;BME280;57046;45.988;18.664;2022-08-19T03:21:25;99923.69;;;20.76;78.28
69772;BME280;57046;45.988;18.664;2022-08-19T03:23:59;99930.75;;;20.77;78.71
69772;BME280;57046;45.988;18.664;2022-08-19T03:26:25;99935.84;;;20.78;78.38
69772;BME280;57046;45.988;18.664;2022-08-19T03:28:50;99928.81;;;20.70;79.33
69772;BME280;57046;45.988;18.664;2022-08-19T03:31:18;99934.66;;;20.76;78.20
69772;BME280;57046;45.988;18.664;2022-08-19T03:33:45;99942.06;;;20.82;77.48
69772;BME280;57046;45.988;18.664;2022-08-19T03:36:18;99954.25;;;20.85;77.58
69772;BME280;57046;45.988;18.664;2022-08-19T03:38:50;99951.53;;;20.81;77.04
69772;BME280;57046;45.988;18.664;2022-08-19T03:41:21;99951.56;;;20.74;77.39
69772;BME280;57046;45.988;18.664;2022-08-19T03:43:47;99955.50;;;20.66;78.60
69772;BME280;57046;45.988;18.664;2022-08-19T03:46:18;99956.69;;;20.65;77.80
69772;BME280;57046;45.988;18.664;2022-08-19T03:48:44;99953.91;;;20.72;77.38
69772;BME280;57046;45.988;18.664;2022-08-19T03:51:19;99952.34;;;20.75;77.57
69772;BME280;57046;45.988;18.664;2022-08-19T03:53:46;99944.50;;;20.73;78.35
69772;BME280;57046;45.988;18.664;2022-08-19T03:56:12;99939.78;;;20.74;77.88
69772;BME280;57046;45.988;18.664;2022-08-19T03:58:38;99929.59;;;20.74;77.77
69772;BME280;57046;45.988;18.664;2022-08-19T04:01:07;99950.75;;;20.81;78.67
69772;BME280;57046;45.988;18.664;2022-08-19T04:03:33;99947.59;;;20.75;78.80
69772;BME280;57046;45.988;18.664;2022-08-19T04:05:59;99966.84;;;20.75;78.48
69772;BME280;57046;45.988;18.664;2022-08-19T04:08:24;99966.84;;;20.72;79.10
69772;BME280;57046;45.988;18.664;2022-08-19T04:10:49;99962.91;;;20.76;78.49
69772;BME280;57046;45.988;18.664;2022-08-19T04:13:16;99971.13;;;20.83;78.32
69772;BME280;57046;45.988;18.664;2022-08-19T04:15:45;99964.44;;;20.88;77.36
69772;BME280;57046;45.988;18.664;2022-08-19T04:18:14;99971.06;;;20.94;76.98
69772;BME280;57046;45.988;18.664;2022-08-19T04:20:45;99971.84;;;20.98;76.05
69772;BME280;57046;45.988;18.664;2022-08-19T04:23:11;99964.69;;;21.08;75.95
69772;BME280;57046;45.988;18.664;2022-08-19T04:25:39;99959.56;;;21.13;75.19
69772;BME280;57046;45.988;18.664;2022-08-19T04:28:05;99965.75;;;21.28;73.92
69772;BME280;57046;45.988;18.664;2022-08-19T04:30:36;99973.94;;;21.39;73.40
69772;BME280;57046;45.988;18.664;2022-08-19T04:33:02;99983.28;;;21.48;72.99
69772;BME280;57046;45.988;18.664;2022-08-19T04:35:27;99992.69;;;21.51;72.22
69772;BME280;57046;45.988;18.664;2022-08-19T04:37:52;99986.34;;;21.57;71.99
69772;BME280;57046;45.988;18.664;2022-08-19T04:40:18;99987.91;;;21.58;72.04
69772;BME280;57046;45.988;18.664;2022-08-19T04:42:43;99981.22;;;21.63;72.04
69772;BME280;57046;45.988;18.664;2022-08-19T04:45:12;99980.72;;;21.71;72.28
69772;BME280;57046;45.988;18.664;2022-08-19T04:47:39;99983.41;;;21.78;70.71
69772;BME280;57046;45.988;18.664;2022-08-19T04:50:06;99982.59;;;21.81;69.84
69772;BME280;57046;45.988;18.664;2022-08-19T04:52:32;99972.03;;;21.80;70.32
69772;BME280;57046;45.988;18.664;2022-08-19T04:54:58;99948.06;;;21.77;69.29
69772;BME280;57046;45.988;18.664;2022-08-19T04:57:24;99975.38;;;21.98;69.31
69772;BME280;57046;45.988;18.664;2022-08-19T04:59:53;99969.81;;;22.05;69.17
69772;BME280;57046;45.988;18.664;2022-08-19T05:02:20;99981.09;;;22.18;69.15
69772;BME280;57046;45.988;18.664;2022-08-19T05:04:45;99979.78;;;22.29;68.65
69772;BME280;57046;45.988;18.664;2022-08-19T05:07:11;99968.28;;;22.38;68.16
69772;BME280;57046;45.988;18.664;2022-08-19T05:09:36;99978.84;;;22.43;67.27
69772;BME280;57046;45.988;18.664;2022-08-19T05:12:02;99976.31;;;22.56;68.04
69772;BME280;57046;45.988;18.664;2022-08-19T05:14:27;99966.03;;;22.60;67.04
69772;BME280;57046;45.988;18.664;2022-08-19T05:16:53;99970.25;;;22.71;65.56
69772;BME280;57046;45.988;18.664;2022-08-19T05:19:18;99965.69;;;22.88;65.25
69772;BME280;57046;45.988;18.664;2022-08-19T05:21:44;99953.53;;;22.86;65.60
69772;BME280;57046;45.988;18.664;2022-08-19T05:24:10;99963.00;;;23.11;63.92
69772;BME280;57046;45.988;18.664;2022-08-19T05:26:41;99956.69;;;23.11;64.85
69772;BME280;57046;45.988;18.664;2022-08-19T05:29:07;99957.03;;;23.16;65.17
69772;BME280;57046;45.988;18.664;2022-08-19T05:31:33;99967.41;;;23.32;63.98
69772;BME280;57046;45.988;18.664;2022-08-19T05:33:59;99977.19;;;23.37;64.44
69772;BME280;57046;45.988;18.664;2022-08-19T05:36:26;99975.56;;;23.39;65.26
69772;BME280;57046;45.988;18.664;2022-08-19T05:38:52;99983.44;;;23.41;63.01
69772;BME280;57046;45.988;18.664;2022-08-19T05:41:19;100001.44;;;23.49;62.21
69772;BME280;57046;45.988;18.664;2022-08-19T05:43:48;99996.66;;;23.53;61.94
69772;BME280;57046;45.988;18.664;2022-08-19T05:46:19;100000.44;;;23.62;61.14
69772;BME280;57046;45.988;18.664;2022-08-19T05:48:45;99999.97;;;23.67;62.08
69772;BME280;57046;45.988;18.664;2022-08-19T05:51:11;100001.06;;;23.73;63.28
69772;BME280;57046;45.988;18.664;2022-08-19T05:53:36;99998.59;;;23.79;64.16
69772;BME280;57046;45.988;18.664;2022-08-19T05:56:06;99999.91;;;23.94;64.02
69772;BME280;57046;45.988;18.664;2022-08-19T05:58:33;99988.38;;;23.99;62.54
69772;BME280;57046;45.988;18.664;2022-08-19T06:00:59;99992.19;;;24.05;62.42
69772;BME280;57046;45.988;18.664;2022-08-19T06:03:24;99987.75;;;24.11;61.89
69772;BME280;57046;45.988;18.664;2022-08-19T06:05:49;99984.59;;;24.32;63.60
69772;BME280;57046;45.988;18.664;2022-08-19T06:08:15;99981.38;;;24.38;61.86
69772;BME280;57046;45.988;18.664;2022-08-19T06:10:40;99984.06;;;24.41;61.76
69772;BME280;57046;45.988;18.664;2022-08-19T06:13:05;99988.72;;;24.44;61.71
69772;BME280;57046;45.988;18.664;2022-08-19T06:15:31;99991.34;;;24.51;62.83
69772;BME280;57046;45.988;18.664;2022-08-19T06:17:56;99998.84;;;24.51;62.50
69772;BME280;57046;45.988;18.664;2022-08-19T06:20:21;100004.25;;;24.58;62.42
69772;BME280;57046;45.988;18.664;2022-08-19T06:22:48;100010.47;;;24.62;60.56
69772;BME280;57046;45.988;18.664;2022-08-19T06:25:14;100013.97;;;24.86;60.91
69772;BME280;57046;45.988;18.664;2022-08-19T06:27:40;100007.66;;;24.85;59.74
69772;BME280;57046;45.988;18.664;2022-08-19T06:30:06;100009.56;;;24.88;61.53
69772;BME280;57046;45.988;18.664;2022-08-19T06:32:32;100002.88;;;25.05;61.82
69772;BME280;57046;45.988;18.664;2022-08-19T06:34:58;100002.88;;;25.21;61.59
69772;BME280;57046;45.988;18.664;2022-08-19T06:37:23;100000.75;;;25.45;59.94
69772;BME280;57046;45.988;18.664;2022-08-19T06:39:49;100009.53;;;25.60;59.88
69772;BME280;57046;45.988;18.664;2022-08-19T06:42:15;100006.72;;;25.76;57.49
69772;BME280;57046;45.988;18.664;2022-08-19T06:44:42;100009.84;;;25.94;57.82
69772;BME280;57046;45.988;18.664;2022-08-19T06:47:10;100019.94;;;26.17;56.35
69772;BME280;57046;45.988;18.664;2022-08-19T06:49:35;100017.53;;;26.19;57.31
69772;BME280;57046;45.988;18.664;2022-08-19T06:52:02;100009.91;;;26.23;58.83
69772;BME280;57046;45.988;18.664;2022-08-19T06:54:28;100024.22;;;26.34;56.75
69772;BME280;57046;45.988;18.664;2022-08-19T06:56:53;100018.50;;;26.41;56.86
69772;BME280;57046;45.988;18.664;2022-08-19T06:59:22;100030.41;;;26.54;58.11
69772;BME280;57046;45.988;18.664;2022-08-19T07:01:50;100033.44;;;26.60;55.34
69772;BME280;57046;45.988;18.664;2022-08-19T07:04:22;100023.34;;;26.66;57.00
69772;BME280;57046;45.988;18.664;2022-08-19T07:06:49;100020.47;;;26.69;55.64
69772;BME280;57046;45.988;18.664;2022-08-19T07:09:17;100027.34;;;26.77;54.98
69772;BME280;57046;45.988;18.664;2022-08-19T07:11:50;100028.00;;;26.98;52.17
69772;BME280;57046;45.988;18.664;2022-08-19T07:14:19;100022.13;;;27.21;52.04
69772;BME280;57046;45.988;18.664;2022-08-19T07:16:46;100034.03;;;27.47;51.99
69772;BME280;57046;45.988;18.664;2022-08-19T07:19:12;100039.03;;;27.52;53.33
69772;BME280;57046;45.988;18.664;2022-08-19T07:21:38;100021.03;;;27.56;52.64
69772;BME280;57046;45.988;18.664;2022-08-19T07:24:04;100017.81;;;27.58;55.70
69772;BME280;57046;45.988;18.664;2022-08-19T07:26:33;100019.69;;;27.61;53.41
69772;BME280;57046;45.988;18.664;2022-08-19T07:28:59;100011.56;;;27.79;52.12
69772;BME280;57046;45.988;18.664;2022-08-19T07:31:26;99992.63;;;27.87;53.40
69772;BME280;57046;45.988;18.664;2022-08-19T07:33:55;99994.25;;;27.97;53.83
69772;BME280;57046;45.988;18.664;2022-08-19T07:36:27;99981.47;;;28.12;54.70
69772;BME280;57046;45.988;18.664;2022-08-19T07:38:53;99980.50;;;28.27;52.90
69772;BME280;57046;45.988;18.664;2022-08-19T07:41:24;99979.81;;;28.36;52.48
69772;BME280;57046;45.988;18.664;2022-08-19T07:43:51;99970.75;;;28.66;50.78
69772;BME280;57046;45.988;18.664;2022-08-19T07:46:17;99972.22;;;28.80;50.76
69772;BME280;57046;45.988;18.664;2022-08-19T07:48:44;99971.59;;;28.85;51.24
69772;BME280;57046;45.988;18.664;2022-08-19T07:51:14;99957.41;;;28.92;49.82
69772;BME280;57046;45.988;18.664;2022-08-19T07:53:39;99955.00;;;29.03;50.26
69772;BME280;57046;45.988;18.664;2022-08-19T07:56:05;99961.91;;;29.29;49.58
69772;BME280;57046;45.988;18.664;2022-08-19T07:58:34;99965.44;;;29.79;47.54
69772;BME280;57046;45.988;18.664;2022-08-19T08:01:01;99962.38;;;29.95;46.34
69772;BME280;57046;45.988;18.664;2022-08-19T08:03:28;99985.63;;;30.10;47.22
69772;BME280;57046;45.988;18.664;2022-08-19T08:05:58;99999.25;;;30.17;47.03
69772;BME280;57046;45.988;18.664;2022-08-19T08:08:23;100019.69;;;30.33;44.62
69772;BME280;57046;45.988;18.664;2022-08-19T08:10:49;100018.47;;;30.43;44.83
69772;BME280;57046;45.988;18.664;2022-08-19T08:13:15;100037.22;;;30.60;43.99
69772;BME280;57046;45.988;18.664;2022-08-19T08:15:40;100042.44;;;30.76;44.67
69772;BME280;57046;45.988;18.664;2022-08-19T08:18:06;100038.25;;;30.81;44.34
69772;BME280;57046;45.988;18.664;2022-08-19T08:20:32;100033.09;;;31.07;41.32
69772;BME280;57046;45.988;18.664;2022-08-19T08:22:58;100047.78;;;31.16;42.19
69772;BME280;57046;45.988;18.664;2022-08-19T08:25:24;100050.47;;;31.44;41.39
69772;BME280;57046;45.988;18.664;2022-08-19T08:27:50;100047.69;;;31.53;41.43
69772;BME280;57046;45.988;18.664;2022-08-19T08:30:18;100051.09;;;31.57;39.27
69772;BME280;57046;45.988;18.664;2022-08-19T08:32:44;100041.16;;;31.56;38.66
69772;BME280;57046;45.988;18.664;2022-08-19T08:35:13;100044.66;;;31.65;38.08
69772;BME280;57046;45.988;18.664;2022-08-19T08:37:39;100032.84;;;31.94;36.67
69772;BME280;57046;45.988;18.664;2022-08-19T08:40:09;100036.59;;;32.15;38.11
69772;BME280;57046;45.988;18.664;2022-08-19T08:42:45;100039.22;;;32.18;36.92
69772;BME280;57046;45.988;18.664;2022-08-19T08:45:16;100035.28;;;32.40;36.42
69772;BME280;57046;45.988;18.664;2022-08-19T08:47:47;100024.31;;;32.51;35.73
69772;BME280;57046;45.988;18.664;2022-08-19T08:50:19;100012.53;;;32.47;35.73
69772;BME280;57046;45.988;18.664;2022-08-19T08:52:50;100007.53;;;32.51;36.99
69772;BME280;57046;45.988;18.664;2022-08-19T08:55:21;100001.09;;;32.74;37.66
69772;BME280;57046;45.988;18.664;2022-08-19T09:00:32;99989.88;;;33.03;37.74
69772;BME280;57046;45.988;18.664;2022-08-19T09:03:00;99993.16;;;33.16;37.72
69772;BME280;57046;45.988;18.664;2022-08-19T09:05:34;99992.63;;;33.33;36.55
69772;BME280;57046;45.988;18.664;2022-08-19T09:08:15;99993.38;;;33.48;35.36
69772;BME280;57046;45.988;18.664;2022-08-19T09:10:52;99978.84;;;33.49;36.52
69772;BME280;57046;45.988;18.664;2022-08-19T09:15:57;99990.66;;;33.73;36.71
69772;BME280;57046;45.988;18.664;2022-08-19T09:18:25;99974.09;;;33.96;34.65
69772;BME280;57046;45.988;18.664;2022-08-19T09:20:50;99984.69;;;34.26;34.10
69772;BME280;57046;45.988;18.664;2022-08-19T09:23:16;99981.13;;;34.26;33.14
69772;BME280;57046;45.988;18.664;2022-08-19T09:25:41;99971.59;;;34.18;32.91
69772;BME280;57046;45.988;18.664;2022-08-19T09:28:07;99965.53;;;34.25;34.13
69772;BME280;57046;45.988;18.664;2022-08-19T09:30:39;99976.38;;;34.38;31.84
69772;BME280;57046;45.988;18.664;2022-08-19T09:33:05;99985.72;;;34.55;31.87
69772;BME280;57046;45.988;18.664;2022-08-19T09:35:32;99982.09;;;34.74;30.99
69772;BME280;57046;45.988;18.664;2022-08-19T09:37:58;99978.63;;;34.85;32.13
69772;BME280;57046;45.988;18.664;2022-08-19T09:40:24;99987.38;;;34.93;31.42
69772;BME280;57046;45.988;18.664;2022-08-19T09:42:50;99977.28;;;34.81;31.09
69772;BME280;57046;45.988;18.664;2022-08-19T09:45:17;99987.78;;;34.80;30.42
69772;BME280;57046;45.988;18.664;2022-08-19T09:47:43;99980.09;;;34.81;31.56
69772;BME280;57046;45.988;18.664;2022-08-19T09:50:11;99983.34;;;34.99;31.48
69772;BME280;57046;45.988;18.664;2022-08-19T09:52:37;99974.38;;;35.32;30.69
69772;BME280;57046;45.988;18.664;2022-08-19T09:55:04;99971.09;;;35.39;31.81
69772;BME280;57046;45.988;18.664;2022-08-19T09:57:30;99972.19;;;35.53;29.75
69772;BME280;57046;45.988;18.664;2022-08-19T09:59:55;99975.09;;;35.64;30.14
69772;BME280;57046;45.988;18.664;2022-08-19T10:02:21;99969.75;;;35.71;30.96
69772;BME280;57046;45.988;18.664;2022-08-19T10:04:46;99970.06;;;35.79;31.52
69772;BME280;57046;45.988;18.664;2022-08-19T10:07:11;99969.81;;;35.88;29.96
69772;BME280;57046;45.988;18.664;2022-08-19T10:09:37;99974.69;;;35.88;29.40
69772;BME280;57046;45.988;18.664;2022-08-19T10:12:04;99974.72;;;35.99;29.36
69772;BME280;57046;45.988;18.664;2022-08-19T10:14:30;99972.47;;;36.08;30.64
69772;BME280;57046;45.988;18.664;2022-08-19T10:16:56;99974.03;;;36.20;29.01
69772;BME280;57046;45.988;18.664;2022-08-19T10:19:21;99965.09;;;36.16;28.73
69772;BME280;57046;45.988;18.664;2022-08-19T10:21:47;99968.66;;;36.17;28.02
69772;BME280;57046;45.988;18.664;2022-08-19T10:24:12;99974.19;;;36.00;28.12
69772;BME280;57046;45.988;18.664;2022-08-19T10:26:39;99974.31;;;36.22;26.84
69772;BME280;57046;45.988;18.664;2022-08-19T10:29:05;99959.69;;;36.24;26.45
69772;BME280;57046;45.988;18.664;2022-08-19T10:31:32;99963.59;;;36.54;26.81
69772;BME280;57046;45.988;18.664;2022-08-19T10:33:58;99963.63;;;36.82;27.03
69772;BME280;57046;45.988;18.664;2022-08-19T10:36:28;99965.41;;;36.91;28.27
69772;BME280;57046;45.988;18.664;2022-08-19T10:38:57;99968.00;;;36.78;28.31
69772;BME280;57046;45.988;18.664;2022-08-19T10:41:25;99978.47;;;36.99;26.42
69772;BME280;57046;45.988;18.664;2022-08-19T10:43:56;99987.19;;;36.96;26.61
69772;BME280;57046;45.988;18.664;2022-08-19T10:46:23;99994.88;;;36.73;27.04
69772;BME280;57046;45.988;18.664;2022-08-19T10:48:49;99999.47;;;36.65;26.85
69772;BME280;57046;45.988;18.664;2022-08-19T10:51:16;99993.28;;;36.39;27.34
69772;BME280;57046;45.988;18.664;2022-08-19T10:53:41;100016.78;;;36.24;26.91
69772;BME280;57046;45.988;18.664;2022-08-19T10:56:07;100013.34;;;35.98;26.64
69772;BME280;57046;45.988;18.664;2022-08-19T10:58:32;100027.91;;;35.91;25.90
69772;BME280;57046;45.988;18.664;2022-08-19T11:00:58;100032.16;;;35.70;26.52
69772;BME280;57046;45.988;18.664;2022-08-19T11:03:24;100032.91;;;35.65;28.39
69772;BME280;57046;45.988;18.664;2022-08-19T11:06:07;100030.34;;;35.67;29.05
69772;BME280;57046;45.988;18.664;2022-08-19T11:08:34;100028.38;;;35.42;29.60
69772;BME280;57046;45.988;18.664;2022-08-19T11:11:01;100026.31;;;35.37;29.87
69772;BME280;57046;45.988;18.664;2022-08-19T11:13:28;100028.03;;;35.29;30.18
69772;BME280;57046;45.988;18.664;2022-08-19T11:16:10;100032.81;;;35.17;29.82
69772;BME280;57046;45.988;18.664;2022-08-19T11:18:42;100034.00;;;35.10;31.05
69772;BME280;57046;45.988;18.664;2022-08-19T11:23:40;100035.72;;;34.51;32.15
69772;BME280;57046;45.988;18.664;2022-08-19T11:26:05;100043.50;;;34.36;32.36
69772;BME280;57046;45.988;18.664;2022-08-19T11:28:31;100039.78;;;34.24;32.49
69772;BME280;57046;45.988;18.664;2022-08-19T11:30:57;100039.31;;;34.51;33.07
69772;BME280;57046;45.988;18.664;2022-08-19T11:33:23;100026.72;;;34.67;32.98
69772;BME280;57046;45.988;18.664;2022-08-19T11:35:48;100030.97;;;34.83;32.89
69772;BME280;57046;45.988;18.664;2022-08-19T11:38:14;100037.19;;;34.66;34.29
69772;BME280;57046;45.988;18.664;2022-08-19T11:40:39;100046.38;;;34.67;33.67
69772;BME280;57046;45.988;18.664;2022-08-19T11:43:05;100035.28;;;34.32;34.79
69772;BME280;57046;45.988;18.664;2022-08-19T11:45:32;100031.84;;;34.22;34.79
69772;BME280;57046;45.988;18.664;2022-08-19T11:47:57;100030.50;;;34.38;33.86
69772;BME280;57046;45.988;18.664;2022-08-19T11:50:23;100033.03;;;34.36;33.61
69772;BME280;57046;45.988;18.664;2022-08-19T11:52:49;100011.97;;;34.46;33.19
69772;BME280;57046;45.988;18.664;2022-08-19T11:55:14;100011.75;;;34.30;32.99
69772;BME280;57046;45.988;18.664;2022-08-19T11:57:40;100003.63;;;34.32;33.02
69772;BME280;57046;45.988;18.664;2022-08-19T12:00:06;100019.75;;;33.96;33.99
69772;BME280;57046;45.988;18.664;2022-08-19T12:02:32;100010.50;;;33.70;34.39
69772;BME280;57046;45.988;18.664;2022-08-19T12:04:57;100022.00;;;33.92;34.28
69772;BME280;57046;45.988;18.664;2022-08-19T12:07:23;100022.44;;;34.05;34.69
69772;BME280;57046;45.988;18.664;2022-08-19T12:09:48;100005.94;;;34.33;33.46
69772;BME280;57046;45.988;18.664;2022-08-19T12:12:14;100023.19;;;34.46;33.32
69772;BME280;57046;45.988;18.664;2022-08-19T12:14:39;100021.56;;;34.40;33.07
69772;BME280;57046;45.988;18.664;2022-08-19T12:17:04;100039.34;;;34.31;32.23
69772;BME280;57046;45.988;18.664;2022-08-19T12:19:30;100026.97;;;34.43;31.48
69772;BME280;57046;45.988;18.664;2022-08-19T12:21:59;100028.94;;;34.37;30.94
69772;BME280;57046;45.988;18.664;2022-08-19T12:24:25;100027.28;;;34.71;30.59
69772;BME280;57046;45.988;18.664;2022-08-19T12:26:51;100030.53;;;34.64;30.03
69772;BME280;57046;45.988;18.664;2022-08-19T12:29:18;100023.31;;;34.83;30.50
69772;BME280;57046;45.988;18.664;2022-08-19T12:31:43;100016.31;;;34.73;29.30
69772;BME280;57046;45.988;18.664;2022-08-19T12:34:09;100026.66;;;34.36;30.31
69772;BME280;57046;45.988;18.664;2022-08-19T12:36:34;100025.59;;;33.93;30.69
69772;BME280;57046;45.988;18.664;2022-08-19T12:38:59;100036.09;;;33.43;32.03
69772;BME280;57046;45.988;18.664;2022-08-19T12:41:25;100044.47;;;32.93;33.18
69772;BME280;57046;45.988;18.664;2022-08-19T12:43:51;100077.44;;;32.36;32.37
69772;BME280;57046;45.988;18.664;2022-08-19T12:46:18;100055.22;;;31.94;33.02
69772;BME280;57046;45.988;18.664;2022-08-19T12:48:44;100058.06;;;31.85;33.93
69772;BME280;57046;45.988;18.664;2022-08-19T12:51:12;100070.97;;;31.83;33.22
69772;BME280;57046;45.988;18.664;2022-08-19T12:53:38;100074.44;;;31.68;33.59
69772;BME280;57046;45.988;18.664;2022-08-19T12:56:04;100066.81;;;31.36;33.80